Airfield :
LOGIN :

Register | Disclaimer

   EN    FR    IT 

 










Legend :    VFR   Marginal VFR   IFR   Intensive IFR   Very Intensive IFR
Visi :
Ceiling :
>= 8 km
>= 3000ft
5 to 8 km
1000 to 3000 ft
1500m to 5 km
500 to 1000 ft
800 to 1500m
200 to 500 ft
< 800m
< 200 ft
Symbols :   Thunderstorms  Fog  Heavy snow  Heavy precipitations  Wind > 20 kt
SIGMETs :     Misc.  Thunderstorms  Icing  Turbulence  Mountain Waves  Volcanic Ashes







- Airport Elevation : 204 ft
- IATA code : AGF
- Download approach charts


LFBA - Agen

CURRENT METAR :
  • 290700Z AUTO 24011KT 210V270 9999 BKN020 BKN030 BKN048 16/13 Q1007 TEMPO 26015G30KT 4000 SHRA BKN010 BKN025TCU

EXPIRED METARs :
  • 290630Z AUTO 23007KT 190V260 9999 FEW031 BKN038 BKN058 15/12 Q1007 TEMPO 26015G30KT 4000 SHRA BKN010 BKN025TCU
  • 290600Z AUTO 22008KT 190V260 9999 FEW036 SCT042 BKN084 15/12 Q1007 TEMPO 26015G30KT 4000 SHRA BKN010 BKN025TCU
  • 290530Z AUTO 24009KT 210V270 9999 FEW013 BKN036 BKN084 15/12 Q1007 TEMPO 26015G30KT 4000 SHRA BKN010 BKN025TCU
  • 290500Z AUTO 24009KT CAVOK 14/12 Q1007
  • 290430Z AUTO 25007KT 220V280 9999 FEW020 SCT052 BKN066 14/13 Q1007

TAF TAF LFBA
Valid from the 29 at 06:00 until the 29 at 15:00 UTC


290500Z 2906/2915 26010G20KT 9999 BKN025
TEMPO 2906/2915 26015G30KT 4000 SHRA BKN010 BKN025TCU
PROB30
TEMPO 2909/2912 26020G35KT 2000 TSRA BKN006 BKN020CB
No reported NOTAMs for that airfield.
1 SIGMET reported for the Bordeaux FIR (LFBB) :
 
Severe turbulence
LFBB SIGMET 1 VALID 290530/290930 LFPW
LFBB BORDEAUX FIR/UIR SEV TURB FCST WI N4300 W00130 - N4300 W00145 - N4445 W00145 - N4500 W00100 SFC/FL050 STNR INTSF=



MET'MAP, your aeronautical weather chart ! - Copyright ORBIFLY December 2007 - Disclaimer

ORBIFLY MET'MAP TEAM :

Programming & Development : Alexandra Zaïnal
Concept & Development : Baudouin d'Aumeries
Co-Development & Prog : Marc-Olivier Méhu
Technical & hardware support : Manuel Goepfert

Contact : metmap@orbifly.com




SOURCES & CREDITS :

   NOAA